sensor_id;sensor_type;location;lat;lon;timestamp;P1;durP1;ratioP1;P2;durP2;ratioP2
9422;SDS011;65863;49.506;10.400;2023-04-24T00:01:33;1.50;;;1.40;;
9422;SDS011;65863;49.506;10.400;2023-04-24T00:04:17;1.93;;;1.13;;
9422;SDS011;65863;49.506;10.400;2023-04-24T00:07:01;1.13;;;1.10;;
9422;SDS011;65863;49.506;10.400;2023-04-24T00:09:46;2.30;;;1.30;;
9422;SDS011;65863;49.506;10.400;2023-04-24T00:12:30;1.50;;;1.17;;
9422;SDS011;65863;49.506;10.400;2023-04-24T00:15:14;2.17;;;1.10;;
9422;SDS011;65863;49.506;10.400;2023-04-24T00:17:58;1.30;;;1.20;;
9422;SDS011;65863;49.506;10.400;2023-04-24T00:20:44;1.80;;;1.07;;
9422;SDS011;65863;49.506;10.400;2023-04-24T00:23:29;1.20;;;1.10;;
9422;SDS011;65863;49.506;10.400;2023-04-24T00:26:13;1.87;;;1.00;;
9422;SDS011;65863;49.506;10.400;2023-04-24T00:28:57;2.37;;;1.20;;
9422;SDS011;65863;49.506;10.400;2023-04-24T00:31:41;2.50;;;1.03;;
9422;SDS011;65863;49.506;10.400;2023-04-24T00:34:25;2.40;;;1.17;;
9422;SDS011;65863;49.506;10.400;2023-04-24T00:37:09;2.10;;;1.10;;
9422;SDS011;65863;49.506;10.400;2023-04-24T00:39:54;2.00;;;1.20;;
9422;SDS011;65863;49.506;10.400;2023-04-24T00:42:39;2.37;;;0.93;;
9422;SDS011;65863;49.506;10.400;2023-04-24T00:45:23;1.10;;;1.10;;
9422;SDS011;65863;49.506;10.400;2023-04-24T00:48:07;1.30;;;1.20;;
9422;SDS011;65863;49.506;10.400;2023-04-24T00:50:52;2.17;;;1.00;;
9422;SDS011;65863;49.506;10.400;2023-04-24T00:53:36;3.47;;;1.13;;
9422;SDS011;65863;49.506;10.400;2023-04-24T00:56:20;1.80;;;1.27;;
9422;SDS011;65863;49.506;10.400;2023-04-24T00:59:06;3.87;;;1.20;;
9422;SDS011;65863;49.506;10.400;2023-04-24T01:01:49;1.23;;;1.13;;
9422;SDS011;65863;49.506;10.400;2023-04-24T01:04:34;0.90;;;0.90;;
9422;SDS011;65863;49.506;10.400;2023-04-24T01:07:22;2.80;;;0.90;;
9422;SDS011;65863;49.506;10.400;2023-04-24T01:10:08;1.70;;;1.00;;
9422;SDS011;65863;49.506;10.400;2023-04-24T01:12:52;0.87;;;0.87;;
9422;SDS011;65863;49.506;10.400;2023-04-24T01:15:36;0.90;;;0.90;;
9422;SDS011;65863;49.506;10.400;2023-04-24T01:18:20;2.37;;;0.90;;
9422;SDS011;65863;49.506;10.400;2023-04-24T01:21:07;1.80;;;1.10;;
9422;SDS011;65863;49.506;10.400;2023-04-24T01:23:52;3.30;;;1.20;;
9422;SDS011;65863;49.506;10.400;2023-04-24T01:26:36;3.50;;;1.00;;
9422;SDS011;65863;49.506;10.400;2023-04-24T01:29:20;1.40;;;1.00;;
9422;SDS011;65863;49.506;10.400;2023-04-24T01:32:05;2.30;;;1.30;;
9422;SDS011;65863;49.506;10.400;2023-04-24T01:34:49;2.23;;;0.97;;
9422;SDS011;65863;49.506;10.400;2023-04-24T01:37:34;1.60;;;1.40;;
9422;SDS011;65863;49.506;10.400;2023-04-24T01:40:21;1.30;;;1.00;;
9422;SDS011;65863;49.506;10.400;2023-04-24T01:43:04;1.20;;;1.10;;
9422;SDS011;65863;49.506;10.400;2023-04-24T01:45:49;2.67;;;1.40;;
9422;SDS011;65863;49.506;10.400;2023-04-24T01:48:33;1.77;;;1.03;;
9422;SDS011;65863;49.506;10.400;2023-04-24T01:51:17;2.93;;;1.00;;
9422;SDS011;65863;49.506;10.400;2023-04-24T01:54:01;0.90;;;0.90;;
9422;SDS011;65863;49.506;10.400;2023-04-24T01:56:46;1.57;;;0.80;;
9422;SDS011;65863;49.506;10.400;2023-04-24T01:59:30;1.20;;;0.97;;
9422;SDS011;65863;49.506;10.400;2023-04-24T02:02:16;1.40;;;1.00;;
9422;SDS011;65863;49.506;10.400;2023-04-24T02:05:00;0.83;;;0.83;;
9422;SDS011;65863;49.506;10.400;2023-04-24T02:07:45;0.87;;;0.87;;
9422;SDS011;65863;49.506;10.400;2023-04-24T02:10:29;4.80;;;1.10;;
9422;SDS011;65863;49.506;10.400;2023-04-24T02:13:13;3.23;;;1.10;;
9422;SDS011;65863;49.506;10.400;2023-04-24T02:15:58;1.07;;;0.90;;
9422;SDS011;65863;49.506;10.400;2023-04-24T02:18:42;1.10;;;1.10;;
9422;SDS011;65863;49.506;10.400;2023-04-24T02:21:26;1.47;;;1.10;;
9422;SDS011;65863;49.506;10.400;2023-04-24T02:24:11;1.10;;;1.00;;
9422;SDS011;65863;49.506;10.400;2023-04-24T02:26:55;0.87;;;0.87;;
9422;SDS011;65863;49.506;10.400;2023-04-24T02:29:39;2.40;;;0.90;;
9422;SDS011;65863;49.506;10.400;2023-04-24T02:32:23;1.10;;;0.80;;
9422;SDS011;65863;49.506;10.400;2023-04-24T02:35:07;4.50;;;1.60;;
9422;SDS011;65863;49.506;10.400;2023-04-24T02:37:52;1.27;;;1.00;;
9422;SDS011;65863;49.506;10.400;2023-04-24T02:40:36;2.60;;;1.00;;
9422;SDS011;65863;49.506;10.400;2023-04-24T02:43:20;1.40;;;0.90;;
9422;SDS011;65863;49.506;10.400;2023-04-24T02:46:05;0.80;;;0.80;;
9422;SDS011;65863;49.506;10.400;2023-04-24T02:48:49;1.23;;;1.10;;
9422;SDS011;65863;49.506;10.400;2023-04-24T02:51:33;0.83;;;0.80;;
9422;SDS011;65863;49.506;10.400;2023-04-24T02:54:17;1.40;;;1.20;;
9422;SDS011;65863;49.506;10.400;2023-04-24T02:57:01;1.10;;;1.00;;
9422;SDS011;65863;49.506;10.400;2023-04-24T02:59:45;1.97;;;1.13;;
9422;SDS011;65863;49.506;10.400;2023-04-24T03:02:29;2.20;;;1.00;;
9422;SDS011;65863;49.506;10.400;2023-04-24T03:05:13;2.73;;;1.10;;
9422;SDS011;65863;49.506;10.400;2023-04-24T03:07:58;1.37;;;1.13;;
9422;SDS011;65863;49.506;10.400;2023-04-24T03:10:41;2.33;;;1.00;;
9422;SDS011;65863;49.506;10.400;2023-04-24T03:13:26;0.80;;;0.80;;
9422;SDS011;65863;49.506;10.400;2023-04-24T03:16:10;1.53;;;1.17;;
9422;SDS011;65863;49.506;10.400;2023-04-24T03:18:54;0.93;;;0.93;;
9422;SDS011;65863;49.506;10.400;2023-04-24T03:21:38;1.70;;;0.87;;
9422;SDS011;65863;49.506;10.400;2023-04-24T03:24:25;1.37;;;1.03;;
9422;SDS011;65863;49.506;10.400;2023-04-24T03:27:12;0.90;;;0.90;;
9422;SDS011;65863;49.506;10.400;2023-04-24T03:30:07;0.80;;;0.80;;
9422;SDS011;65863;49.506;10.400;2023-04-24T03:33:01;1.87;;;0.90;;
9422;SDS011;65863;49.506;10.400;2023-04-24T03:35:48;2.13;;;1.07;;
9422;SDS011;65863;49.506;10.400;2023-04-24T03:38:33;3.20;;;1.03;;
9422;SDS011;65863;49.506;10.400;2023-04-24T03:41:37;4.40;;;1.07;;
9422;SDS011;65863;49.506;10.400;2023-04-24T03:44:27;2.20;;;1.00;;
9422;SDS011;65863;49.506;10.400;2023-04-24T03:47:11;1.93;;;0.90;;
9422;SDS011;65863;49.506;10.400;2023-04-24T03:49:55;0.90;;;0.90;;
9422;SDS011;65863;49.506;10.400;2023-04-24T03:52:39;1.40;;;1.07;;
9422;SDS011;65863;49.506;10.400;2023-04-24T03:55:23;1.60;;;1.00;;
9422;SDS011;65863;49.506;10.400;2023-04-24T03:58:08;1.33;;;0.83;;
9422;SDS011;65863;49.506;10.400;2023-04-24T04:00:52;2.03;;;1.10;;
9422;SDS011;65863;49.506;10.400;2023-04-24T04:03:54;2.30;;;1.07;;
9422;SDS011;65863;49.506;10.400;2023-04-24T04:06:42;2.27;;;1.10;;
9422;SDS011;65863;49.506;10.400;2023-04-24T04:09:27;0.80;;;0.80;;
9422;SDS011;65863;49.506;10.400;2023-04-24T04:12:11;0.70;;;0.70;;
9422;SDS011;65863;49.506;10.400;2023-04-24T04:14:56;1.70;;;1.10;;
9422;SDS011;65863;49.506;10.400;2023-04-24T04:17:41;1.33;;;1.10;;
9422;SDS011;65863;49.506;10.400;2023-04-24T04:20:25;1.13;;;1.00;;
9422;SDS011;65863;49.506;10.400;2023-04-24T04:23:09;1.73;;;1.20;;
9422;SDS011;65863;49.506;10.400;2023-04-24T04:26:05;4.90;;;1.83;;
9422;SDS011;65863;49.506;10.400;2023-04-24T04:29:05;4.43;;;1.10;;
9422;SDS011;65863;49.506;10.400;2023-04-24T04:31:52;1.50;;;1.00;;
9422;SDS011;65863;49.506;10.400;2023-04-24T04:34:36;3.70;;;1.20;;
9422;SDS011;65863;49.506;10.400;2023-04-24T04:37:21;1.70;;;1.07;;
9422;SDS011;65863;49.506;10.400;2023-04-24T04:40:31;1.63;;;1.00;;
9422;SDS011;65863;49.506;10.400;2023-04-24T04:43:20;1.50;;;1.07;;
9422;SDS011;65863;49.506;10.400;2023-04-24T04:46:08;1.00;;;1.00;;
9422;SDS011;65863;49.506;10.400;2023-04-24T04:49:02;1.93;;;1.23;;
9422;SDS011;65863;49.506;10.400;2023-04-24T04:51:46;1.03;;;1.00;;
9422;SDS011;65863;49.506;10.400;2023-04-24T04:54:31;1.20;;;1.10;;
9422;SDS011;65863;49.506;10.400;2023-04-24T04:57:15;1.00;;;0.90;;
9422;SDS011;65863;49.506;10.400;2023-04-24T04:59:59;1.50;;;1.10;;
9422;SDS011;65863;49.506;10.400;2023-04-24T05:02:57;2.67;;;0.90;;
9422;SDS011;65863;49.506;10.400;2023-04-24T05:05:41;3.57;;;1.10;;
9422;SDS011;65863;49.506;10.400;2023-04-24T05:08:28;2.03;;;0.97;;
9422;SDS011;65863;49.506;10.400;2023-04-24T05:11:13;3.07;;;0.90;;
9422;SDS011;65863;49.506;10.400;2023-04-24T05:13:59;2.30;;;1.10;;
9422;SDS011;65863;49.506;10.400;2023-04-24T05:16:51;0.90;;;0.90;;
9422;SDS011;65863;49.506;10.400;2023-04-24T05:19:38;1.27;;;1.10;;
9422;SDS011;65863;49.506;10.400;2023-04-24T05:22:23;0.90;;;0.90;;
9422;SDS011;65863;49.506;10.400;2023-04-24T05:25:10;0.83;;;0.80;;
9422;SDS011;65863;49.506;10.400;2023-04-24T05:28:18;1.87;;;1.07;;
9422;SDS011;65863;49.506;10.400;2023-04-24T05:31:08;2.53;;;1.17;;
9422;SDS011;65863;49.506;10.400;2023-04-24T05:33:53;0.87;;;0.70;;
9422;SDS011;65863;49.506;10.400;2023-04-24T05:36:37;1.30;;;1.10;;
9422;SDS011;65863;49.506;10.400;2023-04-24T05:39:21;1.10;;;1.00;;
9422;SDS011;65863;49.506;10.400;2023-04-24T05:42:05;2.57;;;1.03;;
9422;SDS011;65863;49.506;10.400;2023-04-24T05:44:49;2.63;;;1.10;;
9422;SDS011;65863;49.506;10.400;2023-04-24T05:47:33;0.50;;;0.50;;
9422;SDS011;65863;49.506;10.400;2023-04-24T05:50:17;1.33;;;0.90;;
9422;SDS011;65863;49.506;10.400;2023-04-24T05:53:01;2.90;;;0.90;;
9422;SDS011;65863;49.506;10.400;2023-04-24T05:55:50;1.07;;;0.80;;
9422;SDS011;65863;49.506;10.400;2023-04-24T05:58:34;1.43;;;0.83;;
9422;SDS011;65863;49.506;10.400;2023-04-24T06:01:18;0.50;;;0.50;;
9422;SDS011;65863;49.506;10.400;2023-04-24T06:04:08;0.70;;;0.70;;
9422;SDS011;65863;49.506;10.400;2023-04-24T06:06:52;0.93;;;0.60;;
9422;SDS011;65863;49.506;10.400;2023-04-24T06:09:39;2.53;;;0.77;;
9422;SDS011;65863;49.506;10.400;2023-04-24T06:12:23;2.17;;;0.70;;
9422;SDS011;65863;49.506;10.400;2023-04-24T06:15:14;2.00;;;0.60;;
9422;SDS011;65863;49.506;10.400;2023-04-24T06:18:14;2.17;;;0.60;;
9422;SDS011;65863;49.506;10.400;2023-04-24T06:20:59;1.33;;;1.17;;
9422;SDS011;65863;49.506;10.400;2023-04-24T06:23:44;0.70;;;0.70;;
9422;SDS011;65863;49.506;10.400;2023-04-24T06:26:30;2.50;;;0.80;;
9422;SDS011;65863;49.506;10.400;2023-04-24T06:29:14;1.00;;;1.00;;
9422;SDS011;65863;49.506;10.400;2023-04-24T06:31:58;3.00;;;0.70;;
9422;SDS011;65863;49.506;10.400;2023-04-24T06:34:42;0.93;;;0.90;;
9422;SDS011;65863;49.506;10.400;2023-04-24T06:37:26;0.83;;;0.80;;
9422;SDS011;65863;49.506;10.400;2023-04-24T06:40:11;1.37;;;1.20;;
9422;SDS011;65863;49.506;10.400;2023-04-24T06:42:55;3.07;;;1.17;;
9422;SDS011;65863;49.506;10.400;2023-04-24T06:45:40;1.10;;;1.00;;
9422;SDS011;65863;49.506;10.400;2023-04-24T06:48:24;3.73;;;1.27;;
9422;SDS011;65863;49.506;10.400;2023-04-24T06:51:09;3.93;;;1.30;;
9422;SDS011;65863;49.506;10.400;2023-04-24T06:53:53;1.57;;;1.40;;
9422;SDS011;65863;49.506;10.400;2023-04-24T06:56:38;3.10;;;1.50;;
9422;SDS011;65863;49.506;10.400;2023-04-24T06:59:22;1.63;;;1.53;;
9422;SDS011;65863;49.506;10.400;2023-04-24T07:02:09;1.60;;;1.50;;
9422;SDS011;65863;49.506;10.400;2023-04-24T07:04:53;1.70;;;1.60;;
9422;SDS011;65863;49.506;10.400;2023-04-24T07:07:37;1.57;;;1.47;;
9422;SDS011;65863;49.506;10.400;2023-04-24T07:10:22;1.60;;;1.50;;
9422;SDS011;65863;49.506;10.400;2023-04-24T07:13:19;1.60;;;1.50;;
9422;SDS011;65863;49.506;10.400;2023-04-24T07:16:04;3.37;;;1.73;;
9422;SDS011;65863;49.506;10.400;2023-04-24T07:18:48;1.97;;;1.60;;
9422;SDS011;65863;49.506;10.400;2023-04-24T07:21:32;4.00;;;1.70;;
9422;SDS011;65863;49.506;10.400;2023-04-24T07:24:16;2.43;;;1.90;;
9422;SDS011;65863;49.506;10.400;2023-04-24T07:27:00;2.13;;;1.90;;
9422;SDS011;65863;49.506;10.400;2023-04-24T07:29:45;2.20;;;2.00;;
9422;SDS011;65863;49.506;10.400;2023-04-24T07:32:28;2.10;;;2.00;;
9422;SDS011;65863;49.506;10.400;2023-04-24T07:35:13;3.17;;;2.23;;
9422;SDS011;65863;49.506;10.400;2023-04-24T07:37:57;2.20;;;2.00;;
9422;SDS011;65863;49.506;10.400;2023-04-24T07:40:41;2.60;;;2.40;;
9422;SDS011;65863;49.506;10.400;2023-04-24T07:43:25;3.30;;;2.23;;
9422;SDS011;65863;49.506;10.400;2023-04-24T07:46:09;2.53;;;2.30;;
9422;SDS011;65863;49.506;10.400;2023-04-24T07:48:53;3.27;;;2.60;;
9422;SDS011;65863;49.506;10.400;2023-04-24T07:51:37;3.90;;;2.67;;
9422;SDS011;65863;49.506;10.400;2023-04-24T07:54:22;2.73;;;2.53;;
9422;SDS011;65863;49.506;10.400;2023-04-24T07:57:07;4.70;;;2.70;;
9422;SDS011;65863;49.506;10.400;2023-04-24T07:59:52;2.77;;;2.57;;
9422;SDS011;65863;49.506;10.400;2023-04-24T08:02:36;4.10;;;1.90;;
9422;SDS011;65863;49.506;10.400;2023-04-24T08:05:20;2.13;;;2.03;;
9422;SDS011;65863;49.506;10.400;2023-04-24T08:08:04;1.70;;;1.60;;
9422;SDS011;65863;49.506;10.400;2023-04-24T08:10:48;1.80;;;1.70;;
9422;SDS011;65863;49.506;10.400;2023-04-24T08:13:32;1.90;;;1.80;;
9422;SDS011;65863;49.506;10.400;2023-04-24T08:16:17;3.53;;;1.93;;
9422;SDS011;65863;49.506;10.400;2023-04-24T08:19:01;3.03;;;2.10;;
9422;SDS011;65863;49.506;10.400;2023-04-24T08:21:45;2.13;;;2.00;;
9422;SDS011;65863;49.506;10.400;2023-04-24T08:24:29;3.10;;;2.10;;
9422;SDS011;65863;49.506;10.400;2023-04-24T08:27:13;3.90;;;2.13;;
9422;SDS011;65863;49.506;10.400;2023-04-24T08:29:57;3.87;;;2.30;;
9422;SDS011;65863;49.506;10.400;2023-04-24T08:32:42;3.43;;;2.27;;
9422;SDS011;65863;49.506;10.400;2023-04-24T08:35:26;2.60;;;2.20;;
9422;SDS011;65863;49.506;10.400;2023-04-24T08:38:10;3.23;;;2.10;;
9422;SDS011;65863;49.506;10.400;2023-04-24T08:40:54;2.13;;;1.90;;
9422;SDS011;65863;49.506;10.400;2023-04-24T08:43:42;2.20;;;2.00;;
9422;SDS011;65863;49.506;10.400;2023-04-24T08:46:27;2.73;;;2.53;;
9422;SDS011;65863;49.506;10.400;2023-04-24T08:49:11;2.30;;;2.03;;
9422;SDS011;65863;49.506;10.400;2023-04-24T08:51:57;2.47;;;2.03;;
9422;SDS011;65863;49.506;10.400;2023-04-24T08:54:43;2.30;;;1.90;;
9422;SDS011;65863;49.506;10.400;2023-04-24T08:57:29;2.83;;;1.97;;
9422;SDS011;65863;49.506;10.400;2023-04-24T09:00:14;2.23;;;1.93;;
9422;SDS011;65863;49.506;10.400;2023-04-24T09:03:00;3.67;;;1.80;;
9422;SDS011;65863;49.506;10.400;2023-04-24T09:05:46;1.60;;;1.50;;
9422;SDS011;65863;49.506;10.400;2023-04-24T09:08:31;2.60;;;1.93;;
9422;SDS011;65863;49.506;10.400;2023-04-24T09:11:16;2.57;;;1.50;;
9422;SDS011;65863;49.506;10.400;2023-04-24T09:14:01;4.47;;;1.50;;
9422;SDS011;65863;49.506;10.400;2023-04-24T09:16:45;1.93;;;1.50;;
9422;SDS011;65863;49.506;10.400;2023-04-24T09:19:29;3.80;;;1.47;;
9422;SDS011;65863;49.506;10.400;2023-04-24T09:22:13;1.30;;;1.20;;
9422;SDS011;65863;49.506;10.400;2023-04-24T09:25:08;1.30;;;1.20;;
9422;SDS011;65863;49.506;10.400;2023-04-24T09:27:53;1.37;;;1.20;;
9422;SDS011;65863;49.506;10.400;2023-04-24T09:30:37;3.93;;;1.20;;
9422;SDS011;65863;49.506;10.400;2023-04-24T09:33:21;1.63;;;1.20;;
9422;SDS011;65863;49.506;10.400;2023-04-24T09:36:05;0.73;;;0.73;;
9422;SDS011;65863;49.506;10.400;2023-04-24T09:38:50;0.60;;;0.60;;
9422;SDS011;65863;49.506;10.400;2023-04-24T09:41:44;0.60;;;0.60;;
9422;SDS011;65863;49.506;10.400;2023-04-24T09:44:29;2.00;;;1.40;;
9422;SDS011;65863;49.506;10.400;2023-04-24T09:47:13;1.87;;;0.80;;
9422;SDS011;65863;49.506;10.400;2023-04-24T09:50:01;0.70;;;0.70;;
9422;SDS011;65863;49.506;10.400;2023-04-24T09:53:02;0.80;;;0.77;;
9422;SDS011;65863;49.506;10.400;2023-04-24T09:55:47;0.87;;;0.87;;
9422;SDS011;65863;49.506;10.400;2023-04-24T09:58:32;1.00;;;1.00;;
9422;SDS011;65863;49.506;10.400;2023-04-24T10:01:31;0.83;;;0.83;;
9422;SDS011;65863;49.506;10.400;2023-04-24T10:04:20;1.37;;;0.90;;
9422;SDS011;65863;49.506;10.400;2023-04-24T10:07:07;1.00;;;1.00;;
9422;SDS011;65863;49.506;10.400;2023-04-24T10:09:53;1.40;;;1.20;;
9422;SDS011;65863;49.506;10.400;2023-04-24T10:12:39;1.60;;;1.50;;
9422;SDS011;65863;49.506;10.400;2023-04-24T10:15:22;1.23;;;1.10;;
9422;SDS011;65863;49.506;10.400;2023-04-24T10:18:08;1.53;;;1.30;;
9422;SDS011;65863;49.506;10.400;2023-04-24T10:20:53;2.50;;;1.13;;
9422;SDS011;65863;49.506;10.400;2023-04-24T10:23:38;2.13;;;1.30;;
9422;SDS011;65863;49.506;10.400;2023-04-24T10:26:23;4.83;;;1.20;;
9422;SDS011;65863;49.506;10.400;2023-04-24T10:29:07;1.40;;;1.30;;
9422;SDS011;65863;49.506;10.400;2023-04-24T10:31:53;6.93;;;1.50;;
9422;SDS011;65863;49.506;10.400;2023-04-24T10:34:37;1.80;;;1.30;;
9422;SDS011;65863;49.506;10.400;2023-04-24T10:37:22;2.07;;;1.20;;
9422;SDS011;65863;49.506;10.400;2023-04-24T10:40:08;1.50;;;1.40;;
9422;SDS011;65863;49.506;10.400;2023-04-24T10:42:53;2.40;;;1.50;;
9422;SDS011;65863;49.506;10.400;2023-04-24T10:45:39;1.80;;;1.60;;
9422;SDS011;65863;49.506;10.400;2023-04-24T10:48:26;1.30;;;1.20;;
9422;SDS011;65863;49.506;10.400;2023-04-24T10:51:11;1.50;;;1.40;;
9422;SDS011;65863;49.506;10.400;2023-04-24T10:53:57;2.90;;;1.60;;
9422;SDS011;65863;49.506;10.400;2023-04-24T10:56:41;2.23;;;1.40;;
9422;SDS011;65863;49.506;10.400;2023-04-24T10:59:26;2.60;;;1.57;;
9422;SDS011;65863;49.506;10.400;2023-04-24T11:02:11;2.23;;;1.60;;
9422;SDS011;65863;49.506;10.400;2023-04-24T11:05:00;1.60;;;1.50;;
9422;SDS011;65863;49.506;10.400;2023-04-24T11:16:43;4.10;;;2.03;;
9422;SDS011;65863;49.506;10.400;2023-04-24T11:19:28;2.13;;;1.83;;
9422;SDS011;65863;49.506;10.400;2023-04-24T11:22:16;2.23;;;1.90;;
9422;SDS011;65863;49.506;10.400;2023-04-24T11:25:03;1.97;;;1.60;;
9422;SDS011;65863;49.506;10.400;2023-04-24T11:27:50;3.33;;;1.87;;
9422;SDS011;65863;49.506;10.400;2023-04-24T11:30:46;2.20;;;1.57;;
9422;SDS011;65863;49.506;10.400;2023-04-24T11:33:30;3.17;;;1.87;;
9422;SDS011;65863;49.506;10.400;2023-04-24T11:36:15;2.30;;;1.80;;
9422;SDS011;65863;49.506;10.400;2023-04-24T11:38:58;1.87;;;1.60;;
9422;SDS011;65863;49.506;10.400;2023-04-24T11:41:43;2.20;;;1.60;;
9422;SDS011;65863;49.506;10.400;2023-04-24T11:44:27;2.20;;;2.00;;
9422;SDS011;65863;49.506;10.400;2023-04-24T11:47:12;2.83;;;2.00;;
9422;SDS011;65863;49.506;10.400;2023-04-24T11:49:56;1.30;;;1.20;;
9422;SDS011;65863;49.506;10.400;2023-04-24T11:52:46;4.57;;;1.70;;
9422;SDS011;65863;49.506;10.400;2023-04-24T11:55:31;1.97;;;1.40;;
9422;SDS011;65863;49.506;10.400;2023-04-24T11:58:16;2.07;;;1.80;;
9422;SDS011;65863;49.506;10.400;2023-04-24T12:01:05;1.83;;;1.50;;
9422;SDS011;65863;49.506;10.400;2023-04-24T12:03:50;1.73;;;1.60;;
9422;SDS011;65863;49.506;10.400;2023-04-24T12:07:03;1.90;;;1.80;;
9422;SDS011;65863;49.506;10.400;2023-04-24T12:09:47;1.67;;;1.57;;
9422;SDS011;65863;49.506;10.400;2023-04-24T12:12:33;2.17;;;1.93;;
9422;SDS011;65863;49.506;10.400;2023-04-24T12:15:17;1.67;;;1.50;;
9422;SDS011;65863;49.506;10.400;2023-04-24T12:18:03;2.53;;;1.37;;
9422;SDS011;65863;49.506;10.400;2023-04-24T12:20:47;7.70;;;1.70;;
9422;SDS011;65863;49.506;10.400;2023-04-24T12:23:35;1.83;;;1.50;;
9422;SDS011;65863;49.506;10.400;2023-04-24T12:26:19;3.70;;;1.70;;
9422;SDS011;65863;49.506;10.400;2023-04-24T12:29:04;1.50;;;1.40;;
9422;SDS011;65863;49.506;10.400;2023-04-24T12:31:49;2.30;;;1.67;;
9422;SDS011;65863;49.506;10.400;2023-04-24T12:34:34;3.00;;;1.90;;
9422;SDS011;65863;49.506;10.400;2023-04-24T12:37:19;2.70;;;1.80;;
9422;SDS011;65863;49.506;10.400;2023-04-24T12:40:07;1.53;;;1.43;;
9422;SDS011;65863;49.506;10.400;2023-04-24T12:42:53;1.87;;;1.77;;
9422;SDS011;65863;49.506;10.400;2023-04-24T12:45:37;3.23;;;1.97;;
9422;SDS011;65863;49.506;10.400;2023-04-24T12:48:21;2.50;;;1.70;;
9422;SDS011;65863;49.506;10.400;2023-04-24T12:51:05;1.90;;;1.80;;
9422;SDS011;65863;49.506;10.400;2023-04-24T12:53:49;3.70;;;1.60;;
9422;SDS011;65863;49.506;10.400;2023-04-24T12:56:34;1.80;;;1.70;;
9422;SDS011;65863;49.506;10.400;2023-04-24T12:59:20;1.60;;;1.50;;
9422;SDS011;65863;49.506;10.400;2023-04-24T13:02:04;4.30;;;1.60;;
9422;SDS011;65863;49.506;10.400;2023-04-24T13:04:49;1.83;;;1.50;;
9422;SDS011;65863;49.506;10.400;2023-04-24T13:07:33;1.40;;;1.30;;
9422;SDS011;65863;49.506;10.400;2023-04-24T13:10:18;2.07;;;1.50;;
9422;SDS011;65863;49.506;10.400;2023-04-24T13:13:02;2.80;;;1.67;;
9422;SDS011;65863;49.506;10.400;2023-04-24T13:15:47;1.80;;;1.70;;
9422;SDS011;65863;49.506;10.400;2023-04-24T13:18:31;2.77;;;1.70;;
9422;SDS011;65863;49.506;10.400;2023-04-24T13:21:15;3.57;;;1.80;;
9422;SDS011;65863;49.506;10.400;2023-04-24T13:23:58;1.80;;;1.70;;
9422;SDS011;65863;49.506;10.400;2023-04-24T13:26:42;3.53;;;1.60;;
9422;SDS011;65863;49.506;10.400;2023-04-24T13:29:26;2.00;;;1.70;;
9422;SDS011;65863;49.506;10.400;2023-04-24T13:32:10;1.70;;;1.60;;
9422;SDS011;65863;49.506;10.400;2023-04-24T13:34:54;2.00;;;1.80;;
9422;SDS011;65863;49.506;10.400;2023-04-24T13:37:38;1.83;;;1.60;;
9422;SDS011;65863;49.506;10.400;2023-04-24T13:40:22;1.80;;;1.70;;
9422;SDS011;65863;49.506;10.400;2023-04-24T13:43:06;2.20;;;1.73;;
9422;SDS011;65863;49.506;10.400;2023-04-24T13:45:50;2.07;;;1.60;;
9422;SDS011;65863;49.506;10.400;2023-04-24T13:48:34;1.50;;;1.40;;
9422;SDS011;65863;49.506;10.400;2023-04-24T13:51:18;3.60;;;1.80;;
9422;SDS011;65863;49.506;10.400;2023-04-24T13:54:02;2.67;;;1.60;;
9422;SDS011;65863;49.506;10.400;2023-04-24T13:56:46;1.93;;;1.63;;
9422;SDS011;65863;49.506;10.400;2023-04-24T13:59:30;2.33;;;1.80;;
9422;SDS011;65863;49.506;10.400;2023-04-24T14:02:14;1.90;;;1.80;;
9422;SDS011;65863;49.506;10.400;2023-04-24T14:04:58;2.90;;;1.90;;
9422;SDS011;65863;49.506;10.400;2023-04-24T14:07:42;2.40;;;2.00;;
9422;SDS011;65863;49.506;10.400;2023-04-24T14:10:26;3.47;;;2.10;;
9422;SDS011;65863;49.506;10.400;2023-04-24T14:13:10;2.30;;;2.10;;
9422;SDS011;65863;49.506;10.400;2023-04-24T14:15:54;5.60;;;2.10;;
9422;SDS011;65863;49.506;10.400;2023-04-24T14:18:38;2.97;;;2.40;;
9422;SDS011;65863;49.506;10.400;2023-04-24T14:21:22;2.50;;;1.97;;
9422;SDS011;65863;49.506;10.400;2023-04-24T14:24:07;3.47;;;2.27;;
9422;SDS011;65863;49.506;10.400;2023-04-24T14:26:52;2.63;;;2.20;;
9422;SDS011;65863;49.506;10.400;2023-04-24T14:29:35;2.53;;;2.33;;
9422;SDS011;65863;49.506;10.400;2023-04-24T14:32:19;2.50;;;2.30;;
9422;SDS011;65863;49.506;10.400;2023-04-24T14:35:04;1.87;;;1.77;;
9422;SDS011;65863;49.506;10.400;2023-04-24T14:37:49;5.43;;;2.17;;
9422;SDS011;65863;49.506;10.400;2023-04-24T14:40:33;2.23;;;2.03;;
9422;SDS011;65863;49.506;10.400;2023-04-24T14:43:17;5.07;;;2.10;;
9422;SDS011;65863;49.506;10.400;2023-04-24T14:46:02;2.27;;;1.97;;
9422;SDS011;65863;49.506;10.400;2023-04-24T14:48:47;2.23;;;1.93;;
9422;SDS011;65863;49.506;10.400;2023-04-24T14:51:31;2.13;;;1.90;;
9422;SDS011;65863;49.506;10.400;2023-04-24T14:54:15;3.30;;;2.00;;
9422;SDS011;65863;49.506;10.400;2023-04-24T14:56:59;2.17;;;1.97;;
9422;SDS011;65863;49.506;10.400;2023-04-24T14:59:44;2.47;;;2.23;;
9422;SDS011;65863;49.506;10.400;2023-04-24T15:02:29;2.33;;;2.10;;
9422;SDS011;65863;49.506;10.400;2023-04-24T15:05:13;2.83;;;2.53;;
9422;SDS011;65863;49.506;10.400;2023-04-24T15:07:57;3.57;;;2.47;;
9422;SDS011;65863;49.506;10.400;2023-04-24T15:10:42;4.17;;;2.40;;
9422;SDS011;65863;49.506;10.400;2023-04-24T15:13:28;3.33;;;2.50;;
9422;SDS011;65863;49.506;10.400;2023-04-24T15:16:12;2.23;;;1.97;;
9422;SDS011;65863;49.506;10.400;2023-04-24T15:18:56;4.93;;;2.30;;
9422;SDS011;65863;49.506;10.400;2023-04-24T15:21:40;2.33;;;2.13;;
9422;SDS011;65863;49.506;10.400;2023-04-24T15:24:25;5.23;;;2.67;;
9422;SDS011;65863;49.506;10.400;2023-04-24T15:27:10;3.13;;;2.37;;
9422;SDS011;65863;49.506;10.400;2023-04-24T15:29:54;2.67;;;2.20;;
9422;SDS011;65863;49.506;10.400;2023-04-24T15:32:39;4.43;;;2.80;;
9422;SDS011;65863;49.506;10.400;2023-04-24T15:35:23;4.60;;;2.23;;
9422;SDS011;65863;49.506;10.400;2023-04-24T15:38:07;3.10;;;2.50;;
9422;SDS011;65863;49.506;10.400;2023-04-24T15:40:51;3.00;;;2.30;;
9422;SDS011;65863;49.506;10.400;2023-04-24T15:43:35;3.57;;;2.43;;
9422;SDS011;65863;49.506;10.400;2023-04-24T15:46:19;3.83;;;2.43;;
9422;SDS011;65863;49.506;10.400;2023-04-24T15:49:04;2.60;;;2.13;;
9422;SDS011;65863;49.506;10.400;2023-04-24T15:51:48;3.27;;;1.87;;
9422;SDS011;65863;49.506;10.400;2023-04-24T15:54:32;3.10;;;2.07;;
9422;SDS011;65863;49.506;10.400;2023-04-24T15:57:16;3.20;;;2.10;;
9422;SDS011;65863;49.506;10.400;2023-04-24T16:00:00;2.77;;;2.30;;
9422;SDS011;65863;49.506;10.400;2023-04-24T16:02:55;3.50;;;2.40;;
9422;SDS011;65863;49.506;10.400;2023-04-24T16:05:39;2.47;;;2.27;;
9422;SDS011;65863;49.506;10.400;2023-04-24T16:08:23;3.00;;;2.67;;
9422;SDS011;65863;49.506;10.400;2023-04-24T16:11:07;2.40;;;2.20;;
9422;SDS011;65863;49.506;10.400;2023-04-24T16:13:51;3.03;;;2.43;;
9422;SDS011;65863;49.506;10.400;2023-04-24T16:16:35;2.77;;;2.20;;
9422;SDS011;65863;49.506;10.400;2023-04-24T16:19:19;3.53;;;2.57;;
9422;SDS011;65863;49.506;10.400;2023-04-24T16:22:03;2.57;;;2.37;;
9422;SDS011;65863;49.506;10.400;2023-04-24T16:24:47;3.47;;;2.40;;
9422;SDS011;65863;49.506;10.400;2023-04-24T16:27:31;2.77;;;2.57;;
9422;SDS011;65863;49.506;10.400;2023-04-24T16:30:15;3.93;;;2.60;;
9422;SDS011;65863;49.506;10.400;2023-04-24T16:32:59;3.40;;;2.63;;
9422;SDS011;65863;49.506;10.400;2023-04-24T16:35:43;4.50;;;2.90;;
9422;SDS011;65863;49.506;10.400;2023-04-24T16:38:29;4.67;;;2.83;;
9422;SDS011;65863;49.506;10.400;2023-04-24T16:41:13;2.63;;;2.43;;
9422;SDS011;65863;49.506;10.400;2023-04-24T16:43:57;3.97;;;2.70;;
9422;SDS011;65863;49.506;10.400;2023-04-24T16:46:41;3.80;;;2.73;;